createdAt,value
2022-12-20T00:00:52.465Z,100863.84
2022-12-20T00:03:20.675Z,100861.50
2022-12-20T00:05:49.008Z,100868.13
2022-12-20T00:08:17.447Z,100873.88
2022-12-20T00:10:46.726Z,100886.75
2022-12-20T00:13:14.179Z,100887.91
2022-12-20T00:15:41.357Z,100892.44
2022-12-20T00:18:08.858Z,100888.41
2022-12-20T00:20:36.077Z,100889.41
2022-12-20T00:23:03.272Z,100886.56
2022-12-20T00:25:30.701Z,100896.91
2022-12-20T00:27:57.824Z,100887.69
2022-12-20T00:30:24.986Z,100885.94
2022-12-20T00:32:52.445Z,100868.69
2022-12-20T00:35:19.631Z,100871.94
2022-12-20T00:37:46.784Z,100862.00
2022-12-20T00:40:14.486Z,100865.41
2022-12-20T00:42:41.623Z,100857.22
2022-12-20T00:45:09.032Z,100866.50
2022-12-20T00:47:36.479Z,100859.66
2022-12-20T00:50:03.692Z,100855.84
2022-12-20T00:52:30.943Z,100853.13
2022-12-20T00:54:58.598Z,100851.69
2022-12-20T00:57:25.917Z,100840.87
2022-12-20T00:59:53.289Z,100829.97
2022-12-20T01:02:21.148Z,100832.28
2022-12-20T01:04:49.184Z,100834.25
2022-12-20T01:07:16.331Z,100844.78
2022-12-20T01:09:43.797Z,100833.00
2022-12-20T01:12:11.412Z,100837.53
2022-12-20T01:14:39.582Z,100831.06
2022-12-20T01:17:07.084Z,100832.50
2022-12-20T01:19:34.286Z,100836.13
2022-12-20T01:22:02.025Z,100832.50
2022-12-20T01:24:29.507Z,100836.28
2022-12-20T01:26:56.705Z,100850.69
2022-12-20T01:29:23.872Z,100843.16
2022-12-20T01:31:51.432Z,100834.06
2022-12-20T01:34:18.569Z,100825.31
2022-12-20T01:36:45.740Z,100827.84
2022-12-20T01:39:14.546Z,100815.75
2022-12-20T01:41:42.703Z,100807.28
2022-12-20T01:44:18.762Z,100801.41
2022-12-20T01:46:46.883Z,100798.44
2022-12-20T01:49:15.119Z,100785.13
2022-12-20T01:51:47.466Z,100792.16
2022-12-20T01:54:16.149Z,100789.63
2022-12-20T01:56:43.543Z,100788.59
2022-12-20T01:59:10.712Z,100777.91
2022-12-20T02:01:38.214Z,100765.87
2022-12-20T02:04:05.747Z,100770.38
2022-12-20T02:06:33.131Z,100761.59
2022-12-20T02:09:00.742Z,100755.81
2022-12-20T02:11:47.936Z,100747.84
2022-12-20T02:14:33.956Z,100750.59
2022-12-20T02:17:01.384Z,100754.03
2022-12-20T02:19:28.514Z,100735.28
2022-12-20T02:22:01.005Z,100734.31
2022-12-20T02:24:35.567Z,100739.88
2022-12-20T02:27:22.607Z,100741.69
2022-12-20T02:30:06.599Z,100745.16
2022-12-20T02:32:36.330Z,100744.97
2022-12-20T02:35:05.395Z,100752.69
2022-12-20T02:37:32.631Z,100751.81
2022-12-20T02:40:00.012Z,100728.31
2022-12-20T02:42:27.620Z,100727.81
2022-12-20T02:45:15.065Z,100735.91
2022-12-20T02:47:45.720Z,100737.06
2022-12-20T02:50:12.943Z,100741.53
2022-12-20T02:52:42.476Z,100732.59
2022-12-20T02:55:10.221Z,100730.84
2022-12-20T02:57:57.894Z,100734.03
2022-12-20T03:00:27.487Z,100717.94
2022-12-20T03:03:13.504Z,100717.03
2022-12-20T03:05:44.763Z,100718.47
2022-12-20T03:08:11.910Z,100710.00
2022-12-20T03:10:39.217Z,100709.53
2022-12-20T03:13:06.657Z,100713.66
2022-12-20T03:15:35.543Z,100715.16
2022-12-20T03:18:02.985Z,100727.47
2022-12-20T03:20:30.473Z,100713.78
2022-12-20T03:22:57.630Z,100712.53
2022-12-20T03:25:24.823Z,100712.31
2022-12-20T03:27:52.393Z,100697.78
2022-12-20T03:30:19.756Z,100696.22
2022-12-20T03:32:46.997Z,100707.63
2022-12-20T03:35:14.734Z,100698.56
2022-12-20T03:37:41.988Z,100711.16
2022-12-20T03:40:09.700Z,100699.53
2022-12-20T03:42:37.182Z,100703.66
2022-12-20T03:45:04.712Z,100703.66
2022-12-20T03:47:32.045Z,100712.56
2022-12-20T03:49:59.681Z,100706.28
2022-12-20T03:52:27.210Z,100696.00
2022-12-20T03:54:54.366Z,100700.34
2022-12-20T03:57:21.826Z,100699.53
2022-12-20T03:59:49.669Z,100698.19
2022-12-20T04:02:17.024Z,100687.66
2022-12-20T04:04:44.561Z,100691.53
2022-12-20T04:07:12.369Z,100681.09
2022-12-20T04:09:39.657Z,100677.44
2022-12-20T04:12:07.866Z,100674.37
2022-12-20T04:14:37.455Z,100665.94
2022-12-20T04:17:04.787Z,100664.78
2022-12-20T04:19:32.737Z,100648.91
2022-12-20T04:22:05.125Z,100636.91
2022-12-20T04:24:34.661Z,100642.88
2022-12-20T04:27:02.451Z,100642.91
2022-12-20T04:29:29.778Z,100643.44
2022-12-20T04:31:58.169Z,100629.25
2022-12-20T04:34:25.422Z,100641.28
2022-12-20T04:36:53.014Z,100642.78
2022-12-20T04:39:20.963Z,100641.63
2022-12-20T04:41:51.463Z,100646.13
2022-12-20T04:44:18.655Z,100645.16
2022-12-20T04:46:46.127Z,100640.81
2022-12-20T04:49:13.492Z,100644.56
2022-12-20T04:51:40.890Z,100648.69
2022-12-20T04:54:08.927Z,100646.06
2022-12-20T04:56:36.457Z,100662.44
2022-12-20T04:59:04.159Z,100654.78
2022-12-20T05:01:31.752Z,100652.66
2022-12-20T05:03:59.446Z,100656.00
2022-12-20T05:06:28.720Z,100670.53
2022-12-20T05:08:56.615Z,100660.59
2022-12-20T05:11:23.863Z,100657.63
2022-12-20T05:13:53.973Z,100667.50
2022-12-20T05:16:21.629Z,100670.66
2022-12-20T05:18:49.814Z,100673.53
2022-12-20T05:21:36.375Z,100672.50
2022-12-20T05:24:22.676Z,100664.75
2022-12-20T05:26:50.756Z,100676.66
2022-12-20T05:29:18.507Z,100676.72
2022-12-20T05:31:45.770Z,100683.97
2022-12-20T05:34:13.053Z,100674.13
2022-12-20T05:36:41.033Z,100679.44
2022-12-20T05:39:08.290Z,100664.53
2022-12-20T05:41:35.976Z,100666.84
2022-12-20T05:44:03.770Z,100675.31
2022-12-20T05:46:32.747Z,100684.84
2022-12-20T05:49:00.206Z,100672.50
2022-12-20T05:51:27.941Z,100658.06
2022-12-20T05:53:55.264Z,100665.00
2022-12-20T05:56:22.935Z,100657.19
2022-12-20T05:58:50.382Z,100660.13
2022-12-20T06:01:18.393Z,100642.75
2022-12-20T06:03:46.266Z,100642.88
2022-12-20T06:06:15.233Z,100640.31
2022-12-20T06:08:43.360Z,100638.59
2022-12-20T06:11:11.555Z,100637.41
2022-12-20T06:13:40.991Z,100628.19
2022-12-20T06:16:08.712Z,100630.25
2022-12-20T06:18:36.157Z,100629.00
2022-12-20T06:21:04.113Z,100626.56
2022-12-20T06:23:31.282Z,100623.41
2022-12-20T06:25:59.031Z,100623.31
2022-12-20T06:28:26.713Z,100622.31
2022-12-20T06:30:55.002Z,100636.56
2022-12-20T06:33:24.516Z,100640.63
2022-12-20T06:35:52.168Z,100624.63
2022-12-20T06:38:20.633Z,100620.00
2022-12-20T06:40:48.134Z,100621.41
2022-12-20T06:43:16.236Z,100629.44
2022-12-20T06:45:43.507Z,100622.16
2022-12-20T06:48:11.213Z,100623.34
2022-12-20T06:50:39.371Z,100627.75
2022-12-20T06:53:06.911Z,100620.88
2022-12-20T06:55:34.860Z,100600.25
2022-12-20T06:58:02.040Z,100602.31
2022-12-20T07:00:29.221Z,100609.59
2022-12-20T07:02:56.695Z,100610.06
2022-12-20T07:05:23.928Z,100602.97
2022-12-20T07:07:51.107Z,100606.34
2022-12-20T07:10:18.670Z,100607.66
2022-12-20T07:12:48.482Z,100605.41
2022-12-20T07:15:16.131Z,100603.00
2022-12-20T07:17:43.641Z,100602.06
2022-12-20T07:20:13.639Z,100600.72
2022-12-20T07:22:41.724Z,100602.94
2022-12-20T07:25:09.375Z,100593.59
2022-12-20T07:27:36.506Z,100602.13
2022-12-20T07:30:05.198Z,100608.41
2022-12-20T07:32:32.711Z,100616.81
2022-12-20T07:34:59.960Z,100619.53
2022-12-20T07:37:28.678Z,100627.19
2022-12-20T07:39:56.159Z,100632.63
2022-12-20T07:42:23.457Z,100631.75
2022-12-20T07:44:50.817Z,100619.87
2022-12-20T07:47:18.218Z,100619.53
2022-12-20T07:49:45.390Z,100625.94
2022-12-20T07:52:12.605Z,100618.72
2022-12-20T07:54:47.320Z,100612.63
2022-12-20T07:57:15.976Z,100598.41
2022-12-20T07:59:48.228Z,100596.44
2022-12-20T08:02:20.697Z,100599.28
2022-12-20T08:04:50.694Z,100604.28
2022-12-20T08:07:17.983Z,100601.56
2022-12-20T08:09:45.149Z,100591.25
2022-12-20T08:12:13.389Z,100581.97
2022-12-20T08:14:40.593Z,100572.28
2022-12-20T08:17:07.823Z,100567.88
2022-12-20T08:19:35.495Z,100580.44
2022-12-20T08:22:02.931Z,100572.00
2022-12-20T08:24:30.099Z,100571.75
2022-12-20T08:26:57.966Z,100569.81
2022-12-20T08:29:25.093Z,100582.63
2022-12-20T08:31:52.380Z,100582.59
2022-12-20T08:34:20.173Z,100578.31
2022-12-20T08:36:47.301Z,100569.97
2022-12-20T08:39:14.570Z,100569.84
2022-12-20T08:41:42.041Z,100581.00
2022-12-20T08:44:10.769Z,100571.00
2022-12-20T08:46:38.028Z,100570.31
2022-12-20T08:49:05.721Z,100576.53
2022-12-20T08:51:32.961Z,100560.66
2022-12-20T08:54:00.318Z,100571.47
2022-12-20T08:56:27.861Z,100563.44
2022-12-20T08:58:55.028Z,100561.59
2022-12-20T09:01:22.978Z,100559.78
2022-12-20T09:03:50.657Z,100556.41
2022-12-20T09:06:19.818Z,100564.25
2022-12-20T09:08:47.464Z,100567.62
2022-12-20T09:11:16.140Z,100570.03
2022-12-20T09:13:44.846Z,100582.97
2022-12-20T09:16:13.501Z,100577.72
2022-12-20T09:18:41.302Z,100581.66
2022-12-20T09:21:08.604Z,100579.41
2022-12-20T09:23:35.988Z,100578.59
2022-12-20T09:26:04.223Z,100585.63
2022-12-20T09:28:31.741Z,100576.31
2022-12-20T09:31:03.538Z,100572.91
2022-12-20T09:33:31.565Z,100564.38
2022-12-20T09:35:58.758Z,100545.69
2022-12-20T09:38:26.060Z,100533.72
2022-12-20T09:40:54.231Z,100543.59
2022-12-20T09:43:21.628Z,100534.84
2022-12-20T09:45:49.321Z,100521.03
2022-12-20T09:48:18.152Z,100519.81
2022-12-20T09:51:00.814Z,100517.12
2022-12-20T09:53:41.694Z,100528.25
2022-12-20T09:56:11.905Z,100521.66
2022-12-20T09:58:45.268Z,100513.22
2022-12-20T10:01:15.808Z,100515.50
2022-12-20T10:03:44.272Z,100522.00
2022-12-20T10:06:20.593Z,100521.72
2022-12-20T10:08:57.657Z,100509.34
2022-12-20T10:11:48.075Z,100506.88
2022-12-20T10:14:26.966Z,100513.03
2022-12-20T10:16:56.978Z,100518.50
2022-12-20T10:19:24.711Z,100497.69
2022-12-20T10:21:56.829Z,100500.47
2022-12-20T10:24:30.961Z,100501.59
2022-12-20T10:26:59.740Z,100499.59
2022-12-20T10:29:26.895Z,100493.94
2022-12-20T10:31:54.874Z,100485.00
2022-12-20T10:34:23.012Z,100482.62
2022-12-20T10:36:50.271Z,100468.59
2022-12-20T10:39:17.422Z,100461.94
2022-12-20T10:41:44.860Z,100464.47
2022-12-20T10:44:17.738Z,100460.03
2022-12-20T10:46:49.871Z,100449.78
2022-12-20T10:49:31.197Z,100446.91
2022-12-20T10:52:00.585Z,100438.91
2022-12-20T10:54:32.290Z,100439.97
2022-12-20T10:57:00.557Z,100445.50
2022-12-20T10:59:32.389Z,100442.47
2022-12-20T11:01:59.988Z,100426.34
2022-12-20T11:04:28.947Z,100427.75
2022-12-20T11:06:56.636Z,100428.72
2022-12-20T11:09:27.161Z,100415.63
2022-12-20T11:12:00.211Z,100399.13
2022-12-20T11:14:32.751Z,100406.19
2022-12-20T11:17:06.269Z,100389.00
2022-12-20T11:19:39.657Z,100381.81
2022-12-20T11:22:25.713Z,100372.31
2022-12-20T11:24:53.660Z,100375.75
2022-12-20T11:27:21.233Z,100385.97
2022-12-20T11:29:48.379Z,100385.72
2022-12-20T11:32:44.575Z,100395.91
2022-12-20T11:35:15.473Z,100387.41
2022-12-20T11:38:09.200Z,100389.66
2022-12-20T11:40:39.680Z,100377.69
2022-12-20T11:43:13.407Z,100378.59
2022-12-20T11:45:40.574Z,100374.38
2022-12-20T11:48:17.104Z,100377.84
2022-12-20T11:51:03.414Z,100376.53
2022-12-20T11:53:34.180Z,100365.84
2022-12-20T11:56:10.102Z,100362.66
2022-12-20T11:58:43.702Z,100363.53
2022-12-20T12:01:13.857Z,100373.31
2022-12-20T12:03:43.082Z,100367.88
2022-12-20T12:06:18.149Z,100359.13
2022-12-20T12:09:04.430Z,100351.81
2022-12-20T12:12:05.030Z,100339.50
2022-12-20T12:14:28.932Z,100341.50
2022-12-20T12:16:57.420Z,100348.09
2022-12-20T12:19:25.088Z,100347.53
2022-12-20T12:22:02.102Z,100342.28
2022-12-20T12:24:31.269Z,100339.59
2022-12-20T12:26:59.027Z,100345.00
2022-12-20T12:29:26.415Z,100327.69
2022-12-20T12:31:55.832Z,100333.31
2022-12-20T12:34:23.038Z,100335.94
2022-12-20T12:36:59.337Z,100331.97
2022-12-20T12:39:26.753Z,100326.72
2022-12-20T12:42:00.116Z,100315.66
2022-12-20T12:44:46.368Z,100311.72
2022-12-20T12:47:33.788Z,100314.16
2022-12-20T12:50:01.330Z,100324.03
2022-12-20T12:52:42.343Z,100313.50
2022-12-20T12:55:29.159Z,100317.91
2022-12-20T12:57:57.262Z,100318.44
2022-12-20T13:00:43.453Z,100328.75
2022-12-20T13:03:15.891Z,100314.84
2022-12-20T13:05:43.600Z,100312.44
2022-12-20T13:08:17.818Z,100303.72
2022-12-20T13:10:45.507Z,100298.94
2022-12-20T13:13:14.178Z,100292.56
2022-12-20T13:15:41.346Z,100299.50
2022-12-20T13:18:11.842Z,100293.59
2022-12-20T13:20:39.547Z,100309.19
2022-12-20T13:23:10.644Z,100298.03
2022-12-20T13:25:48.139Z,100292.38
2022-12-20T13:28:24.557Z,100293.00
2022-12-20T13:31:01.618Z,100296.94
2022-12-20T13:33:43.952Z,100290.78
2022-12-20T13:36:11.480Z,100291.13
2022-12-20T13:38:38.848Z,100281.97
2022-12-20T13:41:26.886Z,100286.00
2022-12-20T13:44:00.166Z,100277.00
2022-12-20T13:46:32.508Z,100267.69
2022-12-20T13:49:03.095Z,100278.81
2022-12-20T13:51:30.423Z,100274.37
2022-12-20T13:53:58.739Z,100267.81
2022-12-20T13:56:36.061Z,100258.59
2022-12-20T13:59:16.753Z,100259.28
2022-12-20T14:01:51.750Z,100258.47
2022-12-20T14:04:19.818Z,100245.53
2022-12-20T14:06:51.053Z,100247.75
2022-12-20T14:09:28.637Z,100232.78
2022-12-20T14:11:55.808Z,100231.25
2022-12-20T14:14:23.273Z,100237.81
2022-12-20T14:16:50.497Z,100233.84
2022-12-20T14:19:17.689Z,100235.09
2022-12-20T14:21:45.145Z,100231.09
2022-12-20T14:24:17.123Z,100228.94
2022-12-20T14:26:51.544Z,100225.28
2022-12-20T14:29:19.617Z,100218.47
2022-12-20T14:31:48.412Z,100228.78
2022-12-20T14:34:16.794Z,100206.03
2022-12-20T14:36:46.717Z,100201.31
2022-12-20T14:39:20.236Z,100199.94
2022-12-20T14:41:47.403Z,100187.44
2022-12-20T14:44:18.780Z,100190.50
2022-12-20T14:47:12.374Z,100188.44
2022-12-20T14:49:40.802Z,100179.72
2022-12-20T14:52:20.435Z,100176.84
2022-12-20T14:55:11.015Z,100191.28
2022-12-20T14:57:50.373Z,100193.44
2022-12-20T15:00:17.922Z,100183.81
2022-12-20T15:02:53.458Z,100189.81
2022-12-20T15:05:33.669Z,100191.34
2022-12-20T15:08:33.271Z,100194.62
2022-12-20T15:11:01.155Z,100192.72
2022-12-20T15:13:29.841Z,100186.50
2022-12-20T15:15:58.506Z,100179.50
2022-12-20T15:18:26.129Z,100189.75
2022-12-20T15:21:03.657Z,100187.34
2022-12-20T15:23:31.132Z,100179.09
2022-12-20T15:25:59.139Z,100176.94
2022-12-20T15:28:27.087Z,100174.28
2022-12-20T15:30:55.365Z,100187.72
2022-12-20T15:33:23.856Z,100179.34
2022-12-20T15:35:51.510Z,100190.69
2022-12-20T15:38:25.554Z,100191.09
2022-12-20T15:41:05.662Z,100188.72
2022-12-20T15:43:38.970Z,100184.94
2022-12-20T15:46:06.388Z,100192.06
2022-12-20T15:48:34.001Z,100199.84
2022-12-20T15:51:01.299Z,100192.38
2022-12-20T15:53:31.517Z,100195.47
2022-12-20T15:55:59.188Z,100206.37
2022-12-20T15:58:32.460Z,100210.53
2022-12-20T16:01:00.879Z,100212.19
2022-12-20T16:03:30.384Z,100212.41
2022-12-20T16:05:57.877Z,100204.69
2022-12-20T16:08:25.078Z,100211.66
2022-12-20T16:10:52.589Z,100201.75
2022-12-20T16:13:23.259Z,100214.03
2022-12-20T16:15:51.014Z,100216.50
2022-12-20T16:18:18.523Z,100216.16
2022-12-20T16:20:45.783Z,100216.41
2022-12-20T16:23:16.654Z,100216.13
2022-12-20T16:25:44.737Z,100206.91
2022-12-20T16:28:12.101Z,100210.41
2022-12-20T16:30:39.502Z,100210.13
2022-12-20T16:33:08.413Z,100201.34
2022-12-20T16:35:38.772Z,100198.62
2022-12-20T16:38:05.976Z,100197.41
2022-12-20T16:40:33.462Z,100198.91
2022-12-20T16:43:00.793Z,100196.69
2022-12-20T16:45:28.914Z,100191.91
2022-12-20T16:47:56.472Z,100191.25
2022-12-20T16:50:24.492Z,100190.28
2022-12-20T16:52:51.836Z,100195.53
2022-12-20T16:55:23.638Z,100193.84
2022-12-20T16:57:50.943Z,100188.69
2022-12-20T17:00:19.998Z,100186.53
2022-12-20T17:02:47.477Z,100182.59
2022-12-20T17:05:28.905Z,100176.44
2022-12-20T17:07:56.567Z,100171.84
2022-12-20T17:10:24.024Z,100175.94
2022-12-20T17:12:51.256Z,100168.59
2022-12-20T17:15:23.465Z,100168.12
2022-12-20T17:17:51.060Z,100172.97
2022-12-20T17:20:19.508Z,100182.38
2022-12-20T17:22:50.355Z,100171.47
2022-12-20T17:25:21.799Z,100166.47
2022-12-20T17:27:49.666Z,100170.06
2022-12-20T17:30:16.971Z,100162.69
2022-12-20T17:32:44.247Z,100160.28
2022-12-20T17:35:30.830Z,100159.84
2022-12-20T17:37:58.373Z,100151.22
2022-12-20T17:40:26.768Z,100162.87
2022-12-20T17:42:54.161Z,100165.94
2022-12-20T17:45:22.813Z,100177.72
2022-12-20T17:47:50.473Z,100174.44
2022-12-20T17:50:18.100Z,100169.91
2022-12-20T17:52:45.973Z,100166.37
2022-12-20T17:55:21.045Z,100157.09
2022-12-20T17:57:48.317Z,100148.34
2022-12-20T18:00:18.274Z,100152.47
2022-12-20T18:02:46.197Z,100152.91
2022-12-20T18:05:13.635Z,100147.25
2022-12-20T18:07:41.014Z,100155.50
2022-12-20T18:10:09.090Z,100142.94
2022-12-20T18:12:37.802Z,100133.16
2022-12-20T18:15:07.436Z,100130.72
2022-12-20T18:17:35.045Z,100134.72
2022-12-20T18:20:02.254Z,100133.06
2022-12-20T18:22:32.134Z,100120.31
2022-12-20T18:25:00.160Z,100123.25
2022-12-20T18:27:30.896Z,100115.94
2022-12-20T18:29:58.320Z,100111.69
2022-12-20T18:32:26.013Z,100114.44
2022-12-20T18:34:53.497Z,100108.16
2022-12-20T18:37:20.877Z,100098.16
2022-12-20T18:39:48.934Z,100098.97
2022-12-20T18:42:16.739Z,100097.69
2022-12-20T18:44:44.323Z,100102.53
2022-12-20T18:47:12.335Z,100108.03
2022-12-20T18:49:39.927Z,100102.63
2022-12-20T18:52:07.141Z,100106.03
2022-12-20T18:54:34.664Z,100096.97
2022-12-20T18:57:04.740Z,100106.22
2022-12-20T18:59:34.258Z,100101.47
2022-12-20T19:02:02.110Z,100098.91
2022-12-20T19:04:29.654Z,100097.31
2022-12-20T19:06:56.993Z,100099.91
2022-12-20T19:09:24.624Z,100095.91
2022-12-20T19:11:57.035Z,100089.06
2022-12-20T19:14:25.458Z,100090.19
2022-12-20T19:16:53.301Z,100077.53
2022-12-20T19:19:20.622Z,100070.78
2022-12-20T19:21:48.475Z,100060.13
2022-12-20T19:24:16.288Z,100062.03
2022-12-20T19:26:43.572Z,100069.00
2022-12-20T19:29:12.277Z,100075.16
2022-12-20T19:31:39.741Z,100075.47
2022-12-20T19:34:08.473Z,100067.25
2022-12-20T19:36:40.066Z,100074.28
2022-12-20T19:39:08.499Z,100072.72
2022-12-20T19:41:36.236Z,100079.66
2022-12-20T19:44:06.702Z,100083.66
2022-12-20T19:46:34.046Z,100080.06
2022-12-20T19:49:01.656Z,100085.53
2022-12-20T19:51:29.196Z,100091.50
2022-12-20T19:53:57.688Z,100100.41
2022-12-20T19:56:32.437Z,100092.84
2022-12-20T19:58:59.969Z,100088.50
2022-12-20T20:01:28.173Z,100093.81
2022-12-20T20:03:57.684Z,100095.38
2022-12-20T20:06:25.492Z,100089.41
2022-12-20T20:08:52.837Z,100097.34
2022-12-20T20:11:21.166Z,100090.09
2022-12-20T20:13:48.629Z,100092.03
2022-12-20T20:16:21.852Z,100090.75
2022-12-20T20:18:50.203Z,100087.38
2022-12-20T20:21:21.194Z,100079.88
2022-12-20T20:23:52.794Z,100079.88
2022-12-20T20:26:24.437Z,100078.81
2022-12-20T20:28:52.274Z,100068.34
2022-12-20T20:31:20.282Z,100077.53
2022-12-20T20:33:48.050Z,100071.94
2022-12-20T20:36:16.135Z,100068.22
2022-12-20T20:38:43.592Z,100064.03
2022-12-20T20:41:10.795Z,100069.59
2022-12-20T20:43:38.566Z,100076.12
2022-12-20T20:46:07.388Z,100068.25
2022-12-20T20:48:35.323Z,100068.50
2022-12-20T20:51:02.513Z,100063.78
2022-12-20T20:53:33.919Z,100059.31
2022-12-20T20:56:05.783Z,100060.72
2022-12-20T20:58:34.191Z,100064.19
2022-12-20T21:01:01.903Z,100069.91
2022-12-20T21:03:30.163Z,100066.50
2022-12-20T21:08:45.350Z,100057.28
2022-12-20T21:11:13.136Z,100050.81
2022-12-20T21:13:40.570Z,100048.59
2022-12-20T21:16:11.651Z,100041.91
2022-12-20T21:18:39.408Z,100047.88
2022-12-20T21:21:09.215Z,100059.00
2022-12-20T21:23:36.620Z,100055.25
2022-12-20T21:26:04.277Z,100054.37
2022-12-20T21:28:31.722Z,100048.25
2022-12-20T21:31:00.040Z,100046.47
2022-12-20T21:33:28.218Z,100026.78
2022-12-20T21:36:01.856Z,100036.81
2022-12-20T21:38:29.356Z,100027.69
2022-12-20T21:41:00.573Z,100026.25
2022-12-20T21:43:27.958Z,100021.78
2022-12-20T21:45:56.304Z,100014.94
2022-12-20T21:48:24.014Z,100015.84
2022-12-20T21:50:57.954Z,100013.97
2022-12-20T21:53:25.435Z,100008.69
2022-12-20T21:55:56.682Z,100009.44
2022-12-20T21:58:24.363Z,100003.09
2022-12-20T22:00:54.871Z,99993.53
2022-12-20T22:03:23.967Z,99991.94
2022-12-20T22:05:52.222Z,99991.72
2022-12-20T22:08:19.664Z,99995.94
2022-12-20T22:10:47.140Z,99988.88
2022-12-20T22:13:14.951Z,99975.38
2022-12-20T22:15:42.137Z,99974.59
2022-12-20T22:18:10.094Z,99967.56
2022-12-20T22:20:37.270Z,99983.53
2022-12-20T22:23:04.965Z,99981.47
2022-12-20T22:25:35.218Z,99972.00
2022-12-20T22:28:02.489Z,99971.06
2022-12-20T22:30:30.107Z,99976.06
2022-12-20T22:32:57.742Z,99966.94
2022-12-20T22:35:25.113Z,99960.81
2022-12-20T22:37:52.334Z,99943.81
2022-12-20T22:40:19.943Z,99948.50
2022-12-20T22:42:47.114Z,99941.44
2022-12-20T22:45:14.427Z,99935.75
2022-12-20T22:50:26.393Z,99932.25
2022-12-20T22:52:53.771Z,99926.53
2022-12-20T22:55:21.082Z,99917.44
2022-12-20T22:57:48.213Z,99917.66
2022-12-20T23:00:15.856Z,99916.09
2022-12-20T23:02:43.119Z,99930.91
2022-12-20T23:05:10.374Z,99911.81
2022-12-20T23:07:38.008Z,99909.69
2022-12-20T23:10:25.438Z,99910.16
2022-12-20T23:13:11.800Z,99909.84
2022-12-20T23:15:41.642Z,99895.91
2022-12-20T23:18:09.081Z,99905.62
2022-12-20T23:20:54.741Z,99902.56
2022-12-20T23:23:22.489Z,99895.47
2022-12-20T23:25:49.620Z,99900.31
2022-12-20T23:28:16.715Z,99892.91
2022-12-20T23:30:44.175Z,99889.53
2022-12-20T23:33:11.348Z,99891.22
2022-12-20T23:35:39.711Z,99892.00
2022-12-20T23:38:07.615Z,99882.25
2022-12-20T23:40:34.752Z,99871.97
2022-12-20T23:43:02.412Z,99879.84
2022-12-20T23:45:30.322Z,99873.63
2022-12-20T23:47:57.493Z,99870.53
2022-12-20T23:50:24.617Z,99863.94
2022-12-20T23:52:51.985Z,99853.94
2022-12-20T23:55:19.160Z,99855.97
2022-12-20T23:57:46.291Z,99848.81
